createdAt,value
2023-04-14T00:02:54.322Z,1.90
2023-04-14T00:06:58.700Z,2.10
2023-04-14T00:10:59.421Z,2.13
2023-04-14T00:15:03.472Z,2.40
2023-04-14T00:19:03.992Z,2.43
2023-04-14T00:23:04.583Z,2.30
2023-04-14T00:27:05.319Z,2.50
2023-04-14T00:31:08.862Z,2.20
2023-04-14T00:35:10.268Z,2.20
2023-04-14T00:39:10.742Z,2.60
2023-04-14T00:43:11.169Z,2.63
2023-04-14T00:47:14.602Z,2.87
2023-04-14T00:51:16.156Z,2.87
2023-04-14T00:55:19.118Z,2.23
2023-04-14T00:59:20.617Z,2.60
2023-04-14T01:03:25.018Z,2.60
2023-04-14T01:07:28.830Z,2.30
2023-04-14T01:11:52.183Z,2.40
2023-04-14T01:16:00.612Z,2.60
2023-04-14T01:20:23.088Z,2.73
2023-04-14T01:24:43.602Z,2.50
2023-04-14T01:29:14.242Z,2.03
2023-04-14T01:33:25.730Z,2.20
2023-04-14T01:37:34.567Z,2.30
2023-04-14T01:41:37.356Z,2.47
2023-04-14T01:45:46.530Z,2.20
2023-04-14T01:49:55.884Z,2.40
2023-04-14T01:54:00.717Z,2.40
2023-04-14T01:58:06.942Z,2.30
2023-04-14T02:02:12.690Z,2.40
2023-04-14T02:06:17.300Z,2.33
2023-04-14T02:10:21.621Z,2.27
2023-04-14T02:14:24.748Z,2.40
2023-04-14T02:18:27.396Z,2.27
2023-04-14T02:22:31.319Z,2.40
2023-04-14T02:26:39.959Z,2.40
2023-04-14T02:30:45.377Z,2.57
2023-04-14T02:34:55.709Z,2.30
2023-04-14T02:39:03.875Z,2.20
2023-04-14T02:43:14.787Z,1.93
2023-04-14T02:47:27.064Z,2.10
2023-04-14T02:51:34.692Z,2.50
2023-04-14T02:55:40.009Z,2.33
2023-04-14T02:59:45.237Z,2.50
2023-04-14T03:03:47.141Z,2.40
2023-04-14T03:07:50.234Z,2.30
2023-04-14T03:11:58.419Z,2.53
2023-04-14T03:16:01.580Z,2.20
2023-04-14T03:20:04.355Z,2.30
2023-04-14T03:24:06.963Z,2.53
2023-04-14T03:28:16.804Z,2.50
2023-04-14T03:32:23.269Z,2.67
2023-04-14T03:36:26.486Z,2.50
2023-04-14T03:40:32.505Z,2.77
2023-04-14T03:44:39.103Z,3.33
2023-04-14T03:48:44.660Z,3.70
2023-04-14T03:52:53.830Z,3.50
2023-04-14T03:56:57.721Z,3.23
2023-04-14T04:01:05.729Z,3.27
2023-04-14T04:05:09.215Z,2.57
2023-04-14T04:09:15.036Z,3.23
2023-04-14T04:13:20.738Z,3.10
2023-04-14T04:17:29.630Z,2.70
2023-04-14T04:21:33.656Z,2.53
2023-04-14T04:25:35.205Z,3.17
2023-04-14T04:29:44.256Z,2.80
2023-04-14T04:33:49.723Z,3.00
2023-04-14T04:37:54.107Z,2.87
2023-04-14T04:42:04.237Z,3.30
2023-04-14T04:46:51.755Z,3.10
2023-04-14T04:50:55.833Z,2.73
2023-04-14T04:54:56.361Z,3.20
2023-04-14T04:58:57.208Z,3.10
2023-04-14T05:02:58.402Z,3.13
2023-04-14T05:07:01.973Z,2.93
2023-04-14T05:11:02.424Z,3.50
2023-04-14T05:15:03.271Z,3.67
2023-04-14T05:19:04.146Z,3.20
2023-04-14T05:23:07.564Z,3.30
2023-04-14T05:27:14.274Z,3.17
2023-04-14T05:31:15.348Z,3.00
2023-04-14T05:35:16.336Z,3.40
2023-04-14T05:39:20.085Z,3.60
2023-04-14T05:43:20.494Z,3.30
2023-04-14T05:47:21.305Z,2.90
2023-04-14T05:51:21.758Z,3.00
2023-04-14T05:55:25.151Z,3.00
2023-04-14T05:59:25.841Z,3.00
2023-04-14T06:03:26.643Z,3.10
2023-04-14T06:07:27.622Z,2.80
2023-04-14T06:11:33.585Z,3.40
2023-04-14T06:15:37.514Z,3.20
2023-04-14T06:19:38.094Z,3.03
2023-04-14T06:23:39.297Z,2.70
2023-04-14T06:27:42.504Z,3.00
2023-04-14T06:31:43.140Z,2.97
2023-04-14T06:35:43.858Z,2.87
2023-04-14T06:39:44.525Z,2.60
2023-04-14T06:43:50.474Z,2.53
2023-04-14T06:47:51.388Z,2.50
2023-04-14T06:51:52.006Z,2.80
2023-04-14T06:55:59.884Z,2.10
2023-04-14T07:00:04.506Z,2.20
2023-04-14T07:04:08.368Z,2.20
2023-04-14T07:08:09.044Z,2.17
2023-04-14T07:12:09.884Z,2.40
2023-04-14T07:16:13.654Z,2.03
2023-04-14T07:20:15.138Z,2.10
2023-04-14T07:24:16.211Z,2.30
2023-04-14T07:28:16.954Z,2.17
2023-04-14T07:32:20.526Z,1.93
2023-04-14T07:36:21.337Z,1.90
2023-04-14T07:40:22.028Z,1.90
2023-04-14T07:44:22.602Z,1.87
2023-04-14T07:48:26.282Z,1.93
2023-04-14T07:52:26.853Z,2.00
2023-04-14T07:56:27.329Z,2.00
2023-04-14T08:00:28.202Z,2.20
2023-04-14T08:04:31.890Z,2.00
2023-04-14T08:08:32.519Z,1.93
2023-04-14T08:12:33.146Z,2.03
2023-04-14T08:16:37.140Z,1.90
2023-04-14T08:20:40.661Z,1.93
2023-04-14T08:24:41.146Z,2.00
2023-04-14T08:28:42.168Z,2.00
2023-04-14T08:32:42.682Z,1.70
2023-04-14T08:36:47.711Z,1.70
2023-04-14T08:40:50.941Z,2.13
2023-04-14T08:44:52.896Z,2.50
2023-04-14T08:49:04.348Z,2.43
2023-04-14T08:53:13.695Z,2.10
2023-04-14T08:57:20.721Z,2.50
2023-04-14T09:01:22.544Z,2.40
2023-04-14T09:05:23.638Z,2.37
2023-04-14T09:09:28.138Z,2.33
2023-04-14T09:13:31.467Z,3.10
2023-04-14T09:17:34.683Z,3.10
2023-04-14T09:21:53.382Z,2.87
2023-04-14T09:25:59.684Z,3.30
2023-04-14T09:30:01.549Z,2.33
2023-04-14T09:34:02.860Z,2.20
2023-04-14T09:38:05.222Z,2.03
2023-04-14T09:42:08.619Z,2.60
2023-04-14T09:46:11.687Z,2.50
2023-04-14T09:50:13.836Z,2.40
2023-04-14T09:54:14.550Z,2.10
2023-04-14T09:58:24.621Z,2.50
2023-04-14T10:02:28.923Z,2.47
2023-04-14T10:06:31.633Z,2.47
2023-04-14T10:10:33.742Z,2.60
2023-04-14T10:14:37.455Z,2.60
2023-04-14T10:18:38.557Z,2.83
2023-04-14T10:22:41.134Z,2.50
2023-04-14T10:26:43.089Z,3.00
2023-04-14T10:30:47.313Z,3.10
2023-04-14T10:35:05.707Z,3.40
2023-04-14T10:39:10.701Z,3.00
2023-04-14T10:43:16.201Z,3.43
2023-04-14T10:47:27.815Z,3.43
2023-04-14T10:51:39.050Z,3.10
2023-04-14T10:55:56.969Z,3.77
2023-04-14T11:00:01.694Z,3.90
2023-04-14T11:04:21.685Z,3.57
2023-04-14T11:08:29.627Z,4.20
2023-04-14T11:12:31.839Z,4.10
2023-04-14T11:16:32.887Z,4.37
2023-04-14T11:20:36.275Z,3.70
2023-04-14T11:24:37.705Z,4.37
2023-04-14T11:28:41.003Z,4.17
2023-04-14T11:32:51.894Z,4.63
2023-04-14T11:36:56.490Z,5.93
2023-04-14T11:40:59.769Z,6.03
2023-04-14T11:45:03.599Z,5.83
2023-04-14T11:49:07.355Z,6.93
2023-04-14T11:53:14.910Z,6.97
2023-04-14T11:57:17.845Z,7.13
2023-04-14T12:01:25.383Z,7.07
2023-04-14T12:05:50.879Z,6.43
2023-04-14T12:20:27.426Z,5.83
2023-04-14T12:25:10.784Z,5.70
2023-04-14T12:29:56.815Z,5.37
2023-04-14T12:34:28.286Z,5.80
2023-04-14T12:45:15.427Z,7.13
2023-04-14T12:50:03.338Z,5.30
2023-04-14T12:55:13.680Z,5.23
2023-04-14T12:59:35.586Z,8.50
2023-04-14T13:03:47.869Z,6.70
2023-04-14T13:07:57.761Z,3.40
2023-04-14T13:11:58.315Z,2.23
2023-04-14T13:16:14.245Z,2.50
2023-04-14T13:20:47.312Z,2.40
2023-04-14T13:26:45.092Z,2.50
2023-04-14T13:30:41.893Z,2.60
2023-04-14T13:34:52.621Z,2.60
2023-04-14T13:38:55.902Z,2.90
2023-04-14T13:42:58.604Z,2.47
2023-04-14T13:47:22.858Z,3.50
2023-04-14T13:56:27.500Z,3.20
2023-04-14T14:00:27.987Z,3.77
2023-04-14T14:04:28.387Z,5.60
2023-04-14T14:08:30.410Z,4.80
2023-04-14T14:12:34.563Z,4.10
2023-04-14T14:16:37.027Z,3.00
2023-04-14T14:20:37.639Z,2.70
2023-04-14T14:24:37.830Z,3.63
2023-04-14T14:28:40.589Z,3.20
2023-04-14T14:32:40.794Z,2.77
2023-04-14T14:36:41.126Z,2.30
2023-04-14T14:40:41.339Z,3.90
2023-04-14T14:44:44.357Z,2.70
2023-04-14T14:48:44.586Z,3.33
2023-04-14T14:52:45.861Z,3.80
2023-04-14T14:56:46.010Z,4.10
2023-04-14T15:00:49.670Z,3.37
2023-04-14T15:04:50.068Z,3.27
2023-04-14T15:08:51.737Z,3.40
2023-04-14T15:12:52.038Z,3.30
2023-04-14T15:16:54.923Z,3.70
2023-04-14T15:20:56.977Z,3.20
2023-04-14T15:24:57.179Z,3.17
2023-04-14T15:28:57.342Z,3.37
2023-04-14T15:33:01.143Z,3.40
2023-04-14T15:37:01.605Z,3.17
2023-04-14T15:41:04.434Z,3.50
2023-04-14T15:45:04.776Z,3.43
2023-04-14T15:49:07.589Z,3.10
2023-04-14T15:53:08.372Z,7.93
2023-04-14T15:57:09.294Z,7.70
2023-04-14T16:01:12.736Z,6.00
2023-04-14T16:05:15.768Z,7.57
2023-04-14T16:09:16.197Z,3.67
2023-04-14T16:13:17.106Z,5.37
2023-04-14T16:17:17.591Z,4.50
2023-04-14T16:21:20.437Z,6.20
2023-04-14T16:25:22.834Z,4.90
2023-04-14T16:29:23.646Z,5.10
2023-04-14T16:33:24.073Z,8.30
2023-04-14T16:37:28.521Z,4.40
2023-04-14T16:41:29.037Z,4.43
2023-04-14T16:45:29.317Z,9.63
2023-04-14T16:49:29.723Z,6.03
2023-04-14T16:53:32.823Z,6.03
2023-04-14T16:57:33.386Z,6.07
2023-04-14T17:01:33.710Z,4.50
2023-04-14T17:05:34.046Z,3.90
2023-04-14T17:09:37.084Z,4.80
2023-04-14T17:13:37.479Z,4.80
2023-04-14T17:17:38.738Z,4.97
2023-04-14T17:21:39.256Z,4.63
2023-04-14T17:25:42.115Z,4.17
2023-04-14T17:29:42.844Z,4.50
2023-04-14T17:33:44.587Z,5.40
2023-04-14T17:37:44.857Z,4.60
2023-04-14T17:41:48.128Z,5.07
2023-04-14T17:45:50.633Z,5.43
2023-04-14T17:49:52.717Z,5.70
2023-04-14T17:53:53.912Z,6.60
2023-04-14T17:57:57.893Z,5.20
2023-04-14T18:01:58.174Z,6.87
2023-04-14T18:05:58.469Z,5.20
2023-04-14T18:09:58.784Z,7.13
2023-04-14T18:14:02.128Z,6.40
2023-04-14T18:18:03.201Z,5.83
2023-04-14T18:22:03.814Z,19.30
2023-04-14T18:30:12.364Z,9.10
2023-04-14T18:34:14.049Z,8.10
2023-04-14T18:38:14.254Z,7.73
2023-04-14T18:42:15.503Z,7.70
2023-04-14T18:46:18.490Z,9.00
2023-04-14T18:50:20.477Z,8.03
2023-04-14T18:54:21.569Z,8.20
2023-04-14T18:58:23.236Z,8.60
2023-04-14T19:02:26.423Z,8.57
2023-04-14T19:06:26.868Z,8.27
2023-04-14T19:10:27.964Z,10.27
2023-04-14T19:14:28.580Z,9.93
2023-04-14T19:18:31.410Z,8.17
2023-04-14T19:22:31.616Z,7.70
2023-04-14T19:26:34.564Z,7.73
2023-04-14T19:30:35.778Z,7.73
2023-04-14T19:34:38.685Z,7.47
2023-04-14T19:38:39.750Z,8.60
2023-04-14T19:42:40.081Z,8.70
2023-04-14T19:46:42.359Z,8.13
2023-04-14T19:50:45.708Z,8.23
2023-04-14T19:54:46.532Z,11.00
2023-04-14T19:58:46.784Z,9.87
2023-04-14T20:02:47.528Z,9.10
2023-04-14T20:06:50.734Z,8.33
2023-04-14T20:10:52.093Z,8.43
2023-04-14T20:14:52.606Z,8.13
2023-04-14T20:18:53.085Z,9.23
2023-04-14T20:22:57.453Z,8.70
2023-04-14T20:26:57.795Z,8.63
2023-04-14T20:30:58.502Z,9.47
2023-04-14T20:34:58.932Z,9.17
2023-04-14T20:39:01.979Z,10.00
2023-04-14T20:43:02.617Z,10.07
2023-04-14T20:47:03.950Z,11.20
2023-04-14T20:51:04.483Z,9.97
2023-04-14T20:55:13.628Z,9.23
2023-04-14T20:59:17.092Z,12.00
2023-04-14T21:03:17.706Z,11.63
2023-04-14T21:07:18.347Z,10.57
2023-04-14T21:11:22.850Z,11.20
2023-04-14T21:15:50.560Z,11.30
2023-04-14T21:19:46.737Z,11.73
2023-04-14T21:23:48.777Z,11.63
2023-04-14T21:27:52.301Z,11.07
2023-04-14T21:31:54.329Z,11.20
2023-04-14T21:35:55.815Z,10.27
2023-04-14T21:39:59.480Z,11.70
2023-04-14T21:44:02.937Z,10.63
2023-04-14T21:48:05.474Z,10.33
2023-04-14T21:52:06.032Z,9.50
2023-04-14T21:56:10.353Z,9.97
2023-04-14T22:00:18.323Z,10.17
2023-04-14T22:04:33.107Z,9.47
2023-04-14T22:08:36.163Z,9.90
2023-04-14T22:12:37.718Z,11.07
2023-04-14T22:16:41.254Z,11.87
2023-04-14T22:20:41.545Z,9.33
2023-04-14T22:24:41.671Z,9.40
2023-04-14T22:28:42.194Z,9.40
2023-04-14T22:32:45.002Z,9.40
2023-04-14T22:36:45.409Z,10.30
2023-04-14T22:40:52.333Z,10.23
2023-04-14T22:45:00.157Z,9.53
2023-04-14T22:49:03.752Z,9.43
2023-04-14T22:53:04.044Z,9.03
2023-04-14T22:57:04.264Z,11.87
2023-04-14T23:01:15.522Z,10.13
2023-04-14T23:05:24.548Z,9.80
2023-04-14T23:09:24.851Z,9.47
2023-04-14T23:13:25.350Z,10.10
2023-04-14T23:17:25.744Z,9.87
2023-04-14T23:21:28.683Z,10.17
2023-04-14T23:25:29.697Z,10.20
2023-04-14T23:29:29.974Z,9.60
2023-04-14T23:33:30.499Z,9.10
2023-04-14T23:37:33.495Z,9.20
2023-04-14T23:41:34.007Z,10.70
2023-04-14T23:45:37.436Z,9.10
2023-04-14T23:49:37.734Z,8.87
2023-04-14T23:53:40.489Z,9.50
2023-04-14T23:57:40.934Z,9.27
